createdAt,value
2022-09-05T00:01:27.323Z,3.33
2022-09-05T00:03:41.003Z,2.42
2022-09-05T00:06:03.064Z,3.50
2022-09-05T00:08:24.055Z,3.78
2022-09-05T00:11:41.004Z,2.88
2022-09-05T00:13:24.881Z,4.32
2022-09-05T00:15:58.350Z,3.40
2022-09-05T00:21:51.172Z,8.20
2022-09-05T00:24:27.564Z,3.78
2022-09-05T00:24:32.633Z,5.53
2022-09-05T00:26:34.911Z,2.72
2022-09-05T00:29:42.047Z,3.83
2022-09-05T00:32:23.241Z,2.97
2022-09-05T00:35:09.656Z,3.30
2022-09-05T00:37:14.955Z,6.68
2022-09-05T00:39:29.833Z,5.40
2022-09-05T00:41:34.406Z,2.35
2022-09-05T00:43:42.445Z,3.60
2022-09-05T00:45:59.367Z,4.13
2022-09-05T00:48:31.876Z,2.45
2022-09-05T00:50:53.564Z,4.78
2022-09-05T00:53:17.692Z,3.42
2022-09-05T00:56:01.412Z,3.10
2022-09-05T00:58:51.082Z,2.28
2022-09-05T01:00:56.809Z,6.88
2022-09-05T01:03:46.122Z,4.57
2022-09-05T01:06:09.395Z,4.35
2022-09-05T01:10:43.355Z,2.25
2022-09-05T01:13:16.690Z,5.03
2022-09-05T01:15:25.459Z,4.55
2022-09-05T01:18:18.693Z,2.25
2022-09-05T01:20:53.121Z,2.75
2022-09-05T01:23:29.891Z,2.22
2022-09-05T01:25:55.250Z,2.33
2022-09-05T01:29:15.492Z,4.05
2022-09-05T01:30:48.920Z,1.45
2022-09-05T01:33:21.682Z,2.30
2022-09-05T01:35:42.359Z,7.00
2022-09-05T01:39:16.564Z,2.60
2022-09-05T01:41:36.188Z,4.82
2022-09-05T01:44:06.254Z,5.47
2022-09-05T01:46:38.964Z,3.25
2022-09-05T01:49:03.299Z,4.22
2022-09-05T01:51:42.334Z,3.20
2022-09-05T01:53:51.324Z,5.05
2022-09-05T01:56:27.432Z,4.45
2022-09-05T01:58:47.067Z,2.65
2022-09-05T02:01:28.000Z,2.25
2022-09-05T02:03:53.574Z,3.13
2022-09-05T02:06:13.720Z,6.07
2022-09-05T02:08:15.751Z,2.28
2022-09-05T02:10:57.872Z,3.85
2022-09-05T02:13:32.393Z,2.13
2022-09-05T02:16:21.507Z,4.45
2022-09-05T02:18:26.223Z,2.83
2022-09-05T02:20:52.309Z,2.90
2022-09-05T02:23:03.270Z,3.65
2022-09-05T02:25:40.281Z,3.13
2022-09-05T02:28:04.864Z,5.75
2022-09-05T02:30:24.604Z,4.80
2022-09-05T02:32:54.833Z,3.60
2022-09-05T02:35:13.821Z,2.00
2022-09-05T02:40:13.991Z,2.95
2022-09-05T02:45:04.041Z,3.43
2022-09-05T02:45:16.501Z,4.85
2022-09-05T02:46:12.810Z,2.67
2022-09-05T02:48:41.450Z,3.80
2022-09-05T02:57:23.939Z,2.42
2022-09-05T02:57:24.566Z,2.95
2022-09-05T02:57:36.372Z,3.73
2022-09-05T02:59:08.438Z,4.35
2022-09-05T03:01:48.294Z,5.00
2022-09-05T03:04:15.994Z,3.40
2022-09-05T03:07:06.662Z,3.33
2022-09-05T03:09:42.642Z,5.40
2022-09-05T03:12:30.819Z,3.25
2022-09-05T03:15:31.013Z,2.78
2022-09-05T03:18:20.103Z,6.82
2022-09-05T03:20:44.654Z,3.40
2022-09-05T03:23:13.970Z,4.65
2022-09-05T03:26:04.709Z,3.83
2022-09-05T03:28:54.599Z,4.43
2022-09-05T03:31:27.290Z,3.03
2022-09-05T03:34:13.430Z,4.70
2022-09-05T03:36:34.936Z,5.95
2022-09-05T03:39:10.904Z,4.88
2022-09-05T03:42:14.702Z,8.65
2022-09-05T03:44:57.096Z,6.13
2022-09-05T03:47:44.274Z,9.18
2022-09-05T03:55:45.476Z,5.60
2022-09-05T03:57:04.378Z,6.43
2022-09-05T03:57:20.722Z,3.67
2022-09-05T03:58:36.680Z,3.72
2022-09-05T04:01:17.546Z,5.47
2022-09-05T04:08:06.160Z,6.40
2022-09-05T04:08:18.372Z,5.97
2022-09-05T04:09:37.084Z,11.27
2022-09-05T04:11:48.663Z,6.35
2022-09-05T04:14:20.005Z,14.18
2022-09-05T04:16:28.740Z,9.80
2022-09-05T04:18:45.112Z,12.80
2022-09-05T04:20:55.375Z,11.18
2022-09-05T04:23:25.050Z,11.35
2022-09-05T04:26:14.965Z,12.75
2022-09-05T04:28:53.253Z,13.13
2022-09-05T04:31:10.507Z,17.15
2022-09-05T04:33:36.312Z,15.65
2022-09-05T04:35:56.678Z,14.90
2022-09-05T04:38:18.626Z,9.68
2022-09-05T04:41:09.817Z,10.30
2022-09-05T04:43:41.486Z,18.05
2022-09-05T04:45:49.048Z,10.95
2022-09-05T04:47:52.451Z,9.93
2022-09-05T04:50:22.722Z,21.83
2022-09-05T04:53:02.949Z,12.32
2022-09-05T04:55:12.118Z,19.98
2022-09-05T04:57:58.080Z,17.20
2022-09-05T05:03:29.924Z,12.52
2022-09-05T05:06:10.662Z,22.83
2022-09-05T05:06:23.322Z,32.05
2022-09-05T05:07:54.622Z,16.13
2022-09-05T05:12:02.813Z,17.45
2022-09-05T05:18:03.138Z,24.67
2022-09-05T05:18:14.684Z,21.10
2022-09-05T05:18:49.092Z,16.85
2022-09-05T05:20:52.000Z,25.92
2022-09-05T05:23:09.661Z,9.35
2022-09-05T05:25:11.687Z,13.88
2022-09-05T05:27:16.374Z,13.68
2022-09-05T05:29:48.185Z,14.57
2022-09-05T05:31:55.765Z,13.23
2022-09-05T05:34:03.995Z,10.77
2022-09-05T05:36:33.103Z,5.15
2022-09-05T05:38:37.848Z,9.88
2022-09-05T05:40:50.819Z,11.02
2022-09-05T05:42:53.421Z,5.88
2022-09-05T05:44:58.825Z,6.13
2022-09-05T05:47:16.696Z,12.40
2022-09-05T05:50:21.640Z,8.60
2022-09-05T05:53:01.685Z,5.95
2022-09-05T05:55:52.895Z,5.60
2022-09-05T05:58:32.767Z,6.68
2022-09-05T06:01:06.548Z,13.55
2022-09-05T06:04:00.759Z,19.70
2022-09-05T06:06:26.931Z,8.23
2022-09-05T06:12:38.791Z,10.93
2022-09-05T06:15:04.095Z,22.08
2022-09-05T06:15:14.129Z,11.35
2022-09-05T06:17:28.046Z,14.30
2022-09-05T06:22:04.212Z,13.57
2022-09-05T06:23:10.650Z,19.63
2022-09-05T06:26:15.517Z,12.68
2022-09-05T06:28:22.431Z,12.90
2022-09-05T06:30:25.376Z,10.25
2022-09-05T06:33:01.160Z,12.25
2022-09-05T06:35:11.902Z,14.38
2022-09-05T06:37:44.510Z,20.08
2022-09-05T06:40:21.858Z,7.90
2022-09-05T06:42:53.282Z,13.77
2022-09-05T06:45:26.963Z,11.88
2022-09-05T06:47:34.396Z,12.75
2022-09-05T06:49:46.260Z,7.13
2022-09-05T06:52:28.895Z,6.80
2022-09-05T06:54:41.401Z,6.75
2022-09-05T06:57:19.302Z,11.80
2022-09-05T06:59:48.928Z,8.85
2022-09-05T07:02:01.274Z,6.70
2022-09-05T07:05:14.600Z,9.68
2022-09-05T07:07:31.577Z,8.48
2022-09-05T07:09:38.044Z,11.23
2022-09-05T07:11:58.442Z,8.80
2022-09-05T07:14:15.171Z,4.43
2022-09-05T07:17:21.508Z,8.73
2022-09-05T07:19:27.493Z,4.35
2022-09-05T07:21:48.031Z,5.03
2022-09-05T07:24:08.788Z,5.00
2022-09-05T07:26:16.651Z,2.80
2022-09-05T07:28:34.436Z,4.68
2022-09-05T07:30:36.552Z,3.13
2022-09-05T07:32:44.549Z,8.70
2022-09-05T07:34:47.479Z,8.60
2022-09-05T07:37:15.302Z,3.95
2022-09-05T07:39:28.820Z,2.42
2022-09-05T07:41:33.392Z,6.32
2022-09-05T07:43:41.972Z,2.70
2022-09-05T07:46:01.576Z,8.77
2022-09-05T07:48:23.740Z,4.38
2022-09-05T07:54:22.002Z,4.68
2022-09-05T07:56:55.764Z,7.75
2022-09-05T07:57:07.807Z,3.13
2022-09-05T07:58:11.786Z,7.33
2022-09-05T08:00:26.648Z,3.15
2022-09-05T08:02:31.755Z,3.60
2022-09-05T08:04:39.385Z,4.50
2022-09-05T08:07:45.910Z,6.85
2022-09-05T08:10:05.491Z,2.35
2022-09-05T08:11:39.365Z,1.45
2022-09-05T08:13:46.613Z,3.90
2022-09-05T08:16:11.129Z,4.03
2022-09-05T08:18:19.137Z,5.40
2022-09-05T08:20:43.955Z,1.15
2022-09-05T08:23:23.196Z,4.20
2022-09-05T08:25:56.656Z,2.65
2022-09-05T08:28:19.597Z,4.55
2022-09-05T08:30:26.113Z,7.03
2022-09-05T08:33:10.240Z,1.45
2022-09-05T08:35:24.664Z,1.25
2022-09-05T08:37:26.843Z,5.95
2022-09-05T08:39:29.700Z,5.70
2022-09-05T08:42:00.972Z,2.40
2022-09-05T08:46:37.921Z,7.50
2022-09-05T08:46:53.344Z,3.83
2022-09-05T08:49:32.263Z,1.30
2022-09-05T08:51:53.977Z,4.43
2022-09-05T08:54:22.104Z,3.88
2022-09-05T08:56:50.148Z,7.03
2022-09-05T08:59:28.250Z,5.40
2022-09-05T09:02:00.748Z,3.45
2022-09-05T09:05:02.490Z,1.38
2022-09-05T09:07:50.894Z,4.72
2022-09-05T09:10:06.173Z,4.00
2022-09-05T09:12:25.233Z,6.68
2022-09-05T09:14:38.497Z,1.50
2022-09-05T09:16:49.206Z,2.17
2022-09-05T09:18:52.221Z,3.60
2022-09-05T09:21:00.028Z,3.67
2022-09-05T09:23:32.953Z,1.70
2022-09-05T09:26:17.168Z,2.97
2022-09-05T09:28:49.596Z,1.05
2022-09-05T09:31:29.352Z,2.92
2022-09-05T09:33:53.597Z,5.35
2022-09-05T09:36:40.103Z,5.07
2022-09-05T09:39:38.759Z,1.58
2022-09-05T09:41:52.254Z,1.80
2022-09-05T09:45:28.980Z,4.28
2022-09-05T09:47:48.043Z,1.63
2022-09-05T09:50:07.563Z,1.25
2022-09-05T09:52:44.450Z,4.88
2022-09-05T09:55:41.688Z,2.78
2022-09-05T09:58:22.447Z,1.52
2022-09-05T10:00:24.648Z,1.90
2022-09-05T10:06:40.789Z,2.08
2022-09-05T10:10:36.359Z,3.92
2022-09-05T10:10:45.885Z,1.63
2022-09-05T10:11:56.048Z,9.05
2022-09-05T10:14:50.975Z,1.52
2022-09-05T10:17:25.647Z,1.83
2022-09-05T10:20:11.293Z,3.90
2022-09-05T10:23:07.518Z,3.85
2022-09-05T10:25:19.231Z,1.10
2022-09-05T10:27:50.178Z,4.05
2022-09-05T10:30:11.836Z,1.40
2022-09-05T10:35:04.610Z,4.03
2022-09-05T10:35:13.522Z,1.45
2022-09-05T10:37:21.626Z,5.00
2022-09-05T10:39:29.652Z,1.42
2022-09-05T10:41:56.738Z,2.00
2022-09-05T10:44:04.550Z,1.70
2022-09-05T10:46:52.207Z,3.60
2022-09-05T10:48:55.435Z,1.50
2022-09-05T10:51:27.376Z,2.78
2022-09-05T10:54:10.818Z,1.75
2022-09-05T10:56:15.654Z,1.88
2022-09-05T11:02:18.961Z,1.23
2022-09-05T11:02:29.398Z,1.48
2022-09-05T11:04:16.939Z,2.35
2022-09-05T11:06:25.011Z,1.40
2022-09-05T11:08:31.741Z,1.50
2022-09-05T11:10:49.632Z,4.45
2022-09-05T11:13:06.516Z,2.83
2022-09-05T11:15:45.906Z,2.28
2022-09-05T11:18:10.274Z,1.45
2022-09-05T11:20:50.910Z,1.60
2022-09-05T11:22:58.105Z,1.55
2022-09-05T11:25:01.126Z,3.28
2022-09-05T11:27:30.125Z,1.90
2022-09-05T11:29:44.808Z,5.50
2022-09-05T11:35:17.085Z,4.15
2022-09-05T11:39:51.371Z,3.50
2022-09-05T11:40:09.521Z,1.48
2022-09-05T11:41:08.019Z,3.75
2022-09-05T11:43:48.432Z,3.20
2022-09-05T11:46:30.021Z,1.80
2022-09-05T11:48:44.536Z,1.98
2022-09-05T11:51:05.243Z,2.28
2022-09-05T11:53:37.891Z,1.55
2022-09-05T11:55:57.731Z,1.55
2022-09-05T11:58:45.460Z,1.95
2022-09-05T12:01:42.040Z,3.20
2022-09-05T12:03:59.466Z,2.83
2022-09-05T12:06:48.056Z,3.30
2022-09-05T12:09:20.382Z,1.60
2022-09-05T12:11:52.404Z,3.67
2022-09-05T12:14:21.389Z,1.55
2022-09-05T12:16:55.483Z,1.60
2022-09-05T12:19:18.674Z,1.70
2022-09-05T12:22:16.315Z,1.63
2022-09-05T12:25:17.094Z,3.03
2022-09-05T12:27:42.935Z,1.98
2022-09-05T12:29:46.899Z,2.25
2022-09-05T12:33:40.775Z,1.67
2022-09-05T12:36:06.883Z,4.18
2022-09-05T12:40:56.188Z,3.63
2022-09-05T12:40:57.680Z,4.95
2022-09-05T12:42:46.322Z,2.10
2022-09-05T12:45:13.650Z,1.98
2022-09-05T12:47:21.147Z,1.38
2022-09-05T12:50:03.516Z,1.35
2022-09-05T12:52:26.091Z,1.55
2022-09-05T12:54:41.626Z,2.70
2022-09-05T13:00:09.850Z,1.35
2022-09-05T13:03:02.011Z,1.42
2022-09-05T13:03:12.649Z,2.35
2022-09-05T13:06:39.250Z,1.00
2022-09-05T13:08:59.279Z,1.75
2022-09-05T13:14:50.340Z,1.85
2022-09-05T13:16:27.226Z,1.60
2022-09-05T13:18:42.614Z,2.17
2022-09-05T13:21:23.103Z,1.60
2022-09-05T13:23:40.003Z,1.40
2022-09-05T13:25:44.065Z,1.73
2022-09-05T13:27:56.748Z,4.78
2022-09-05T13:31:28.595Z,2.10
2022-09-05T13:37:55.446Z,1.58
2022-09-05T13:38:05.948Z,3.25
2022-09-05T13:40:45.495Z,1.42
2022-09-05T13:43:22.567Z,12.25
2022-09-05T13:45:24.632Z,1.38
2022-09-05T13:47:43.823Z,2.35
2022-09-05T13:50:46.891Z,3.35
2022-09-05T13:53:04.932Z,2.13
2022-09-05T13:55:22.748Z,5.40
2022-09-05T13:57:39.183Z,1.70
2022-09-05T13:59:42.336Z,2.53
2022-09-05T14:02:25.680Z,3.80
2022-09-05T14:10:24.801Z,2.83
2022-09-05T14:12:45.611Z,7.22
2022-09-05T14:15:24.934Z,6.00
2022-09-05T14:18:25.190Z,1.92
2022-09-05T14:20:59.571Z,1.80
2022-09-05T14:23:15.266Z,3.28
2022-09-05T14:25:23.368Z,1.30
2022-09-05T14:27:32.003Z,1.30
2022-09-05T14:29:49.320Z,4.70
2022-09-05T14:37:38.656Z,3.15
2022-09-05T14:37:53.762Z,1.50
2022-09-05T14:38:13.722Z,1.55
2022-09-05T14:40:58.354Z,2.33
2022-09-05T14:43:15.624Z,3.50
2022-09-05T14:45:30.744Z,7.55
2022-09-05T14:47:53.777Z,3.05
2022-09-05T14:50:41.705Z,2.90
2022-09-05T14:55:40.116Z,4.70
2022-09-05T15:02:41.741Z,1.65
2022-09-05T15:02:52.183Z,5.93
2022-09-05T15:03:00.567Z,3.38
2022-09-05T15:05:11.296Z,3.70
2022-09-05T15:07:21.203Z,5.60
2022-09-05T15:11:56.319Z,3.03
2022-09-05T15:12:20.657Z,1.58
2022-09-05T15:14:08.889Z,2.03
2022-09-05T15:16:11.985Z,4.25
2022-09-05T15:18:44.341Z,2.65
2022-09-05T15:22:54.300Z,1.35
2022-09-05T15:25:23.753Z,1.33
2022-09-05T15:27:28.706Z,2.53
2022-09-05T15:29:36.189Z,4.70
2022-09-05T15:31:38.621Z,1.20
2022-09-05T15:33:44.466Z,0.82
2022-09-05T15:35:46.547Z,1.08
2022-09-05T15:40:22.873Z,1.35
2022-09-05T15:42:26.230Z,1.02
2022-09-05T15:46:51.778Z,1.65
2022-09-05T15:48:58.041Z,3.53
2022-09-05T15:51:02.564Z,2.00
2022-09-05T15:53:04.581Z,1.42
2022-09-05T15:55:23.735Z,1.30
2022-09-05T15:57:37.706Z,1.70
2022-09-05T15:59:48.213Z,2.42
2022-09-05T16:01:59.121Z,2.75
2022-09-05T16:07:06.865Z,1.10
2022-09-05T16:10:42.215Z,1.67
2022-09-05T16:10:44.976Z,1.75
2022-09-05T16:12:06.370Z,2.22
2022-09-05T16:13:53.950Z,1.30
2022-09-05T16:19:30.768Z,1.42
2022-09-05T16:23:17.370Z,1.67
2022-09-05T16:23:27.316Z,1.13
2022-09-05T16:23:49.975Z,5.57
2022-09-05T16:26:25.537Z,1.17
2022-09-05T16:28:31.738Z,1.63
2022-09-05T16:30:36.327Z,1.95
2022-09-05T16:32:39.288Z,3.03
2022-09-05T16:34:56.878Z,3.75
2022-09-05T16:37:16.673Z,1.23
2022-09-05T16:39:21.321Z,1.67
2022-09-05T16:41:43.522Z,1.70
2022-09-05T16:43:52.888Z,1.43
2022-09-05T16:46:35.099Z,2.45
2022-09-05T16:49:17.012Z,1.92
2022-09-05T16:51:35.725Z,3.50
2022-09-05T16:53:58.346Z,5.30
2022-09-05T16:58:51.072Z,3.35
2022-09-05T17:01:15.977Z,2.30
2022-09-05T17:03:47.229Z,4.30
2022-09-05T17:05:49.384Z,2.47
2022-09-05T17:08:44.383Z,1.60
2022-09-05T17:11:29.297Z,1.65
2022-09-05T17:13:56.655Z,1.73
2022-09-05T17:16:00.479Z,2.70
2022-09-05T17:18:21.353Z,1.15
2022-09-05T17:25:20.977Z,1.10
2022-09-05T17:29:25.746Z,1.52
2022-09-05T17:29:49.042Z,4.05
2022-09-05T17:31:13.418Z,2.22
2022-09-05T17:32:47.942Z,3.28
2022-09-05T17:34:54.634Z,3.10
2022-09-05T17:37:11.896Z,3.05
2022-09-05T17:40:03.755Z,6.78
2022-09-05T17:42:42.864Z,2.60
2022-09-05T17:44:57.515Z,2.47
2022-09-05T17:47:27.469Z,2.70
2022-09-05T17:49:45.234Z,4.45
2022-09-05T17:51:53.081Z,2.50
2022-09-05T17:54:02.840Z,5.85
2022-09-05T17:56:05.986Z,6.00
2022-09-05T17:59:00.256Z,2.20
2022-09-05T18:01:07.593Z,1.90
2022-09-05T18:03:10.052Z,1.95
2022-09-05T18:05:54.881Z,4.20
2022-09-05T18:07:58.573Z,2.17
2022-09-05T18:13:14.253Z,2.50
2022-09-05T18:15:05.116Z,4.45
2022-09-05T18:17:41.511Z,4.63
2022-09-05T18:19:46.444Z,3.25
2022-09-05T18:22:19.917Z,3.92
2022-09-05T18:24:49.427Z,2.88
2022-09-05T18:26:54.623Z,3.53
2022-09-05T18:29:02.486Z,3.15
2022-09-05T18:31:43.717Z,2.30
2022-09-05T18:34:31.792Z,4.45
2022-09-05T18:36:34.662Z,2.67
2022-09-05T18:38:52.269Z,3.53
2022-09-05T18:41:13.727Z,6.22
2022-09-05T18:43:34.218Z,2.95
2022-09-05T18:45:37.482Z,4.07
2022-09-05T18:47:57.442Z,2.30
2022-09-05T18:50:25.753Z,3.35
2022-09-05T18:52:32.073Z,5.28
2022-09-05T18:54:34.292Z,1.95
2022-09-05T18:57:22.555Z,2.35
2022-09-05T18:59:24.243Z,2.10
2022-09-05T19:01:59.189Z,7.28
2022-09-05T19:04:05.429Z,2.38
2022-09-05T19:06:36.886Z,3.90
2022-09-05T19:08:37.733Z,2.15
2022-09-05T19:10:39.799Z,2.10
2022-09-05T19:12:53.389Z,2.03
2022-09-05T19:14:58.978Z,2.05
2022-09-05T19:17:12.737Z,3.58
2022-09-05T19:19:18.661Z,1.52
2022-09-05T19:21:20.682Z,2.60
2022-09-05T19:23:26.421Z,1.75
2022-09-05T19:25:45.192Z,0.95
2022-09-05T19:33:15.692Z,6.78
2022-09-05T19:36:46.483Z,1.48
2022-09-05T19:37:11.975Z,7.38
2022-09-05T19:37:13.410Z,2.58
2022-09-05T19:37:48.987Z,3.33
2022-09-05T19:42:15.913Z,1.83
2022-09-05T19:47:10.957Z,1.58
2022-09-05T19:47:39.305Z,2.40
2022-09-05T19:47:56.429Z,3.05
2022-09-05T19:50:03.508Z,2.92
2022-09-05T19:52:16.381Z,1.45
2022-09-05T19:54:27.121Z,2.63
2022-09-05T19:56:42.446Z,3.42
2022-09-05T19:58:44.449Z,1.90
2022-09-05T20:01:00.462Z,1.85
2022-09-05T20:03:03.915Z,1.48
2022-09-05T20:05:08.141Z,4.75
2022-09-05T20:07:22.284Z,2.28
2022-09-05T20:09:25.760Z,1.27
2022-09-05T20:11:45.238Z,2.85
2022-09-05T20:13:48.554Z,1.55
2022-09-05T20:15:51.389Z,2.60
2022-09-05T20:17:54.045Z,2.38
2022-09-05T20:20:07.934Z,2.33
2022-09-05T20:22:46.859Z,1.65
2022-09-05T20:24:35.968Z,2.95
2022-09-05T20:26:37.966Z,3.20
2022-09-05T20:28:40.697Z,3.58
2022-09-05T20:32:51.798Z,2.25
2022-09-05T20:35:48.903Z,2.50
2022-09-05T20:43:10.656Z,1.10
2022-09-05T20:43:19.152Z,3.50
2022-09-05T20:43:24.766Z,3.60
2022-09-05T20:44:48.370Z,3.78
2022-09-05T20:54:06.391Z,2.53
2022-09-05T20:54:16.970Z,1.23
2022-09-05T20:54:21.741Z,1.75
2022-09-05T20:55:39.785Z,2.35
2022-09-05T20:57:38.369Z,1.20
2022-09-05T20:59:44.094Z,3.13
2022-09-05T21:01:59.440Z,4.00
2022-09-05T21:04:05.564Z,2.40
2022-09-05T21:06:24.056Z,3.08
2022-09-05T21:08:33.332Z,1.42
2022-09-05T21:10:55.164Z,2.22
2022-09-05T21:12:58.437Z,4.25
2022-09-05T21:15:20.460Z,1.92
2022-09-05T21:17:29.189Z,7.47
2022-09-05T21:19:35.738Z,2.13
2022-09-05T21:21:37.773Z,3.00
2022-09-05T21:23:40.320Z,2.58
2022-09-05T21:25:52.285Z,2.20
2022-09-05T21:28:04.667Z,1.55
2022-09-05T21:30:31.305Z,2.72
2022-09-05T21:32:41.590Z,2.63
2022-09-05T21:34:53.791Z,2.58
2022-09-05T21:37:01.402Z,2.70
2022-09-05T21:39:09.032Z,1.67
2022-09-05T21:41:15.747Z,2.38
2022-09-05T21:47:34.174Z,2.28
2022-09-05T21:47:43.758Z,1.50
2022-09-05T21:48:03.575Z,2.30
2022-09-05T21:59:16.406Z,1.55
2022-09-05T21:59:20.864Z,2.13
2022-09-05T21:59:21.157Z,1.95
2022-09-05T22:01:51.951Z,3.55
2022-09-05T22:03:53.369Z,2.30
2022-09-05T22:05:55.411Z,6.72
2022-09-05T22:08:01.237Z,2.15
2022-09-05T22:10:04.679Z,9.10
2022-09-05T22:12:26.949Z,2.60
2022-09-05T22:14:29.252Z,2.72
2022-09-05T22:16:31.434Z,2.15
2022-09-05T22:18:35.262Z,1.55
2022-09-05T22:20:38.917Z,2.10
2022-09-05T22:22:41.106Z,2.55
2022-09-05T22:24:59.290Z,2.28
2022-09-05T22:27:11.890Z,3.92
2022-09-05T22:29:17.981Z,2.35
2022-09-05T22:31:20.298Z,2.85
2022-09-05T22:33:25.055Z,3.03
2022-09-05T22:35:28.968Z,3.70
2022-09-05T22:37:31.130Z,3.00
2022-09-05T22:39:36.536Z,4.15
2022-09-05T22:41:40.010Z,1.77
2022-09-05T22:43:42.010Z,6.07
2022-09-05T22:45:44.023Z,1.42
2022-09-05T22:47:46.103Z,2.63
2022-09-05T22:49:48.118Z,4.60
2022-09-05T22:51:50.212Z,2.47
2022-09-05T22:53:52.227Z,3.47
2022-09-05T22:56:08.402Z,3.08
2022-09-05T22:58:13.229Z,3.22
2022-09-05T23:00:15.354Z,2.30
2022-09-05T23:02:17.367Z,2.10
2022-09-05T23:04:19.552Z,3.58
2022-09-05T23:06:21.611Z,2.67
2022-09-05T23:08:23.740Z,4.55
2022-09-05T23:10:26.842Z,6.15
2022-09-05T23:12:28.820Z,3.65
2022-09-05T23:14:31.035Z,2.80
2022-09-05T23:16:33.083Z,4.63
2022-09-05T23:18:35.390Z,3.08
2022-09-05T23:20:37.375Z,2.13
2022-09-05T23:22:40.296Z,2.15
2022-09-05T23:24:42.303Z,3.63
2022-09-05T23:26:44.307Z,3.80
2022-09-05T23:28:46.361Z,2.42
2022-09-05T23:30:49.383Z,5.45
2022-09-05T23:32:52.086Z,3.35
2022-09-05T23:34:54.956Z,3.25
2022-09-05T23:36:56.974Z,2.80
2022-09-05T23:38:59.015Z,3.63
2022-09-05T23:41:09.356Z,2.78
2022-09-05T23:43:11.508Z,2.25
2022-09-05T23:45:13.532Z,3.90
2022-09-05T23:47:15.593Z,2.15
2022-09-05T23:49:17.604Z,11.43
2022-09-05T23:51:19.680Z,3.75
2022-09-05T23:53:21.859Z,1.98
2022-09-05T23:55:24.609Z,2.13
2022-09-05T23:59:29.084Z,3.42
